sensor_id;sensor_type;location;lat;lon;timestamp;pressure;altitude;pressure_sealevel;temperature
65569;BMP180;52211;50.154;8.682;2023-01-04T00:00:08;101172.00;;;11.40
65569;BMP180;52211;50.154;8.682;2023-01-04T00:02:39;101175.00;;;11.30
65569;BMP180;52211;50.154;8.682;2023-01-04T00:05:07;101170.00;;;11.30
65569;BMP180;52211;50.154;8.682;2023-01-04T00:07:43;101164.00;;;11.30
65569;BMP180;52211;50.154;8.682;2023-01-04T00:10:10;101167.00;;;11.30
65569;BMP180;52211;50.154;8.682;2023-01-04T00:12:42;101175.00;;;11.20
65569;BMP180;52211;50.154;8.682;2023-01-04T00:15:12;101167.00;;;11.30
65569;BMP180;52211;50.154;8.682;2023-01-04T00:17:44;101168.00;;;11.30
65569;BMP180;52211;50.154;8.682;2023-01-04T00:20:11;101170.00;;;11.30
65569;BMP180;52211;50.154;8.682;2023-01-04T00:22:38;101157.00;;;11.30
65569;BMP180;52211;50.154;8.682;2023-01-04T00:25:05;101161.00;;;11.20
65569;BMP180;52211;50.154;8.682;2023-01-04T00:27:39;101148.00;;;11.20
65569;BMP180;52211;50.154;8.682;2023-01-04T00:30:09;101154.00;;;11.20
65569;BMP180;52211;50.154;8.682;2023-01-04T00:32:38;101146.00;;;11.10
65569;BMP180;52211;50.154;8.682;2023-01-04T00:35:08;101148.00;;;11.10
65569;BMP180;52211;50.154;8.682;2023-01-04T00:37:37;101144.00;;;11.20
65569;BMP180;52211;50.154;8.682;2023-01-04T00:40:07;101128.00;;;11.10
65569;BMP180;52211;50.154;8.682;2023-01-04T00:42:36;101126.00;;;11.10
65569;BMP180;52211;50.154;8.682;2023-01-04T00:45:03;101130.00;;;11.10
65569;BMP180;52211;50.154;8.682;2023-01-04T00:47:33;101127.00;;;11.00
65569;BMP180;52211;50.154;8.682;2023-01-04T00:50:03;101124.00;;;11.00
65569;BMP180;52211;50.154;8.682;2023-01-04T00:52:32;101114.00;;;11.00
65569;BMP180;52211;50.154;8.682;2023-01-04T00:54:59;101118.00;;;11.00
65569;BMP180;52211;50.154;8.682;2023-01-04T00:57:28;101117.00;;;11.10
65569;BMP180;52211;50.154;8.682;2023-01-04T00:59:57;101111.00;;;11.10
65569;BMP180;52211;50.154;8.682;2023-01-04T01:02:24;101109.00;;;11.10
65569;BMP180;52211;50.154;8.682;2023-01-04T01:04:51;101109.00;;;11.10
65569;BMP180;52211;50.154;8.682;2023-01-04T01:07:23;101108.00;;;11.10
65569;BMP180;52211;50.154;8.682;2023-01-04T01:09:52;101090.00;;;11.10
65569;BMP180;52211;50.154;8.682;2023-01-04T01:16:34;101096.00;;;11.10
65569;BMP180;52211;50.154;8.682;2023-01-04T01:19:21;101090.00;;;11.10
65569;BMP180;52211;50.154;8.682;2023-01-04T01:26:05;101089.00;;;11.20
65569;BMP180;52211;50.154;8.682;2023-01-04T01:28:38;101080.00;;;11.30
65569;BMP180;52211;50.154;8.682;2023-01-04T01:31:14;101084.00;;;11.30
65569;BMP180;52211;50.154;8.682;2023-01-04T01:33:48;101092.00;;;11.30
65569;BMP180;52211;50.154;8.682;2023-01-04T01:36:18;101084.00;;;11.30
65569;BMP180;52211;50.154;8.682;2023-01-04T01:38:46;101087.00;;;11.40
65569;BMP180;52211;50.154;8.682;2023-01-04T01:41:28;101072.00;;;11.40
65569;BMP180;52211;50.154;8.682;2023-01-04T01:46:56;101065.00;;;11.40
65569;BMP180;52211;50.154;8.682;2023-01-04T01:49:38;101058.00;;;11.40
65569;BMP180;52211;50.154;8.682;2023-01-04T01:52:14;101048.00;;;11.40
65569;BMP180;52211;50.154;8.682;2023-01-04T01:55:05;101033.00;;;11.40
65569;BMP180;52211;50.154;8.682;2023-01-04T01:57:36;101036.00;;;11.40
65569;BMP180;52211;50.154;8.682;2023-01-04T02:00:11;101031.00;;;11.40
65569;BMP180;52211;50.154;8.682;2023-01-04T02:03:18;101046.00;;;11.40
65569;BMP180;52211;50.154;8.682;2023-01-04T02:05:51;101042.00;;;11.40
65569;BMP180;52211;50.154;8.682;2023-01-04T02:08:23;101038.00;;;11.40
65569;BMP180;52211;50.154;8.682;2023-01-04T02:10:53;101038.00;;;11.40
65569;BMP180;52211;50.154;8.682;2023-01-04T02:13:26;101032.00;;;11.40
65569;BMP180;52211;50.154;8.682;2023-01-04T02:32:02;101010.00;;;11.40
65569;BMP180;52211;50.154;8.682;2023-01-04T02:37:41;101017.00;;;11.40
65569;BMP180;52211;50.154;8.682;2023-01-04T02:40:25;101013.00;;;11.40
65569;BMP180;52211;50.154;8.682;2023-01-04T02:46:00;100995.00;;;11.50
65569;BMP180;52211;50.154;8.682;2023-01-04T02:48:40;100993.00;;;11.50
65569;BMP180;52211;50.154;8.682;2023-01-04T02:51:39;100994.00;;;11.50
65569;BMP180;52211;50.154;8.682;2023-01-04T02:54:14;100990.00;;;11.50
65569;BMP180;52211;50.154;8.682;2023-01-04T03:00:02;100979.00;;;11.50
65569;BMP180;52211;50.154;8.682;2023-01-04T03:06:16;100974.00;;;11.40
65569;BMP180;52211;50.154;8.682;2023-01-04T03:09:26;100968.00;;;11.50
65569;BMP180;52211;50.154;8.682;2023-01-04T03:11:56;100968.00;;;11.50
65569;BMP180;52211;50.154;8.682;2023-01-04T03:14:57;100965.00;;;11.50
65569;BMP180;52211;50.154;8.682;2023-01-04T03:17:32;100958.00;;;11.50
65569;BMP180;52211;50.154;8.682;2023-01-04T03:20:11;100954.00;;;11.50
65569;BMP180;52211;50.154;8.682;2023-01-04T03:22:54;100957.00;;;11.60
65569;BMP180;52211;50.154;8.682;2023-01-04T03:26:08;100952.00;;;11.60
65569;BMP180;52211;50.154;8.682;2023-01-04T03:29:07;100946.00;;;11.60
65569;BMP180;52211;50.154;8.682;2023-01-04T03:32:02;100944.00;;;11.60
65569;BMP180;52211;50.154;8.682;2023-01-04T03:34:49;100934.00;;;11.60
65569;BMP180;52211;50.154;8.682;2023-01-04T03:38:05;100925.00;;;11.50
65569;BMP180;52211;50.154;8.682;2023-01-04T03:41:02;100917.00;;;11.50
65569;BMP180;52211;50.154;8.682;2023-01-04T03:44:09;100922.00;;;11.60
65569;BMP180;52211;50.154;8.682;2023-01-04T03:47:30;100916.00;;;11.60
65569;BMP180;52211;50.154;8.682;2023-01-04T03:50:37;100917.00;;;11.60
65569;BMP180;52211;50.154;8.682;2023-01-04T03:53:15;100906.00;;;11.60
65569;BMP180;52211;50.154;8.682;2023-01-04T10:07:40;100663.00;;;8.70
65569;BMP180;52211;50.154;8.682;2023-01-04T10:10:45;100653.00;;;9.70
65569;BMP180;52211;50.154;8.682;2023-01-04T10:26:17;100622.00;;;12.00
65569;BMP180;52211;50.154;8.682;2023-01-04T10:31:50;100611.00;;;12.20
65569;BMP180;52211;50.154;8.682;2023-01-04T10:34:26;100607.00;;;12.30
65569;BMP180;52211;50.154;8.682;2023-01-04T10:39:44;100591.00;;;12.50
65569;BMP180;52211;50.154;8.682;2023-01-04T10:45:03;100607.00;;;12.60
65569;BMP180;52211;50.154;8.682;2023-01-04T10:50:54;100594.00;;;12.70
65569;BMP180;52211;50.154;8.682;2023-01-04T10:53:58;100598.00;;;12.80
65569;BMP180;52211;50.154;8.682;2023-01-04T10:56:43;100578.00;;;12.80
65569;BMP180;52211;50.154;8.682;2023-01-04T10:59:41;100591.00;;;12.80
65569;BMP180;52211;50.154;8.682;2023-01-04T11:08:20;100590.00;;;12.90
65569;BMP180;52211;50.154;8.682;2023-01-04T11:11:04;100577.00;;;12.90
65569;BMP180;52211;50.154;8.682;2023-01-04T11:13:36;100578.00;;;12.90
65569;BMP180;52211;50.154;8.682;2023-01-04T11:16:05;100573.00;;;12.90
65569;BMP180;52211;50.154;8.682;2023-01-04T11:18:41;100566.00;;;12.90
65569;BMP180;52211;50.154;8.682;2023-01-04T11:21:18;100562.00;;;13.00
65569;BMP180;52211;50.154;8.682;2023-01-04T11:23:46;100569.00;;;13.00
65569;BMP180;52211;50.154;8.682;2023-01-04T11:26:17;100568.00;;;13.00
65569;BMP180;52211;50.154;8.682;2023-01-04T11:31:35;100566.00;;;13.10
65569;BMP180;52211;50.154;8.682;2023-01-04T11:34:08;100548.00;;;13.10
65569;BMP180;52211;50.154;8.682;2023-01-04T11:36:43;100532.00;;;13.10
65569;BMP180;52211;50.154;8.682;2023-01-04T11:39:26;100537.00;;;13.20
65569;BMP180;52211;50.154;8.682;2023-01-04T11:41:59;100544.00;;;13.20
65569;BMP180;52211;50.154;8.682;2023-01-04T11:44:34;100528.00;;;13.20
65569;BMP180;52211;50.154;8.682;2023-01-04T11:47:19;100530.00;;;13.20
65569;BMP180;52211;50.154;8.682;2023-01-04T11:49:48;100510.00;;;13.30
65569;BMP180;52211;50.154;8.682;2023-01-04T11:52:36;100529.00;;;13.30
65569;BMP180;52211;50.154;8.682;2023-01-04T11:55:31;100508.00;;;13.30
65569;BMP180;52211;50.154;8.682;2023-01-04T11:58:16;100519.00;;;13.30
65569;BMP180;52211;50.154;8.682;2023-01-04T12:00:57;100502.00;;;13.40
65569;BMP180;52211;50.154;8.682;2023-01-04T12:03:39;100502.00;;;13.40
65569;BMP180;52211;50.154;8.682;2023-01-04T12:06:21;100492.00;;;13.40
65569;BMP180;52211;50.154;8.682;2023-01-04T12:08:52;100498.00;;;13.50
65569;BMP180;52211;50.154;8.682;2023-01-04T12:11:32;100497.00;;;13.50
65569;BMP180;52211;50.154;8.682;2023-01-04T12:17:04;100478.00;;;13.60
65569;BMP180;52211;50.154;8.682;2023-01-04T12:19:35;100482.00;;;13.70
65569;BMP180;52211;50.154;8.682;2023-01-04T12:22:36;100476.00;;;13.70
65569;BMP180;52211;50.154;8.682;2023-01-04T12:25:37;100471.00;;;13.70
65569;BMP180;52211;50.154;8.682;2023-01-04T12:28:05;100476.00;;;13.80
65569;BMP180;52211;50.154;8.682;2023-01-04T12:30:43;100476.00;;;13.80
65569;BMP180;52211;50.154;8.682;2023-01-04T12:36:22;100478.00;;;13.80
65569;BMP180;52211;50.154;8.682;2023-01-04T12:58:08;100458.00;;;13.90
65569;BMP180;52211;50.154;8.682;2023-01-04T13:01:29;100452.00;;;13.90
65569;BMP180;52211;50.154;8.682;2023-01-04T13:04:28;100451.00;;;13.90
65569;BMP180;52211;50.154;8.682;2023-01-04T13:10:34;100425.00;;;13.90
65569;BMP180;52211;50.154;8.682;2023-01-04T13:13:25;100422.00;;;13.90
65569;BMP180;52211;50.154;8.682;2023-01-04T17:16:11;100263.00;;;10.30
65569;BMP180;52211;50.154;8.682;2023-01-04T17:18:39;100264.00;;;11.40
65569;BMP180;52211;50.154;8.682;2023-01-04T17:21:11;100265.00;;;12.30
65569;BMP180;52211;50.154;8.682;2023-01-04T17:24:04;100263.00;;;13.00
65569;BMP180;52211;50.154;8.682;2023-01-04T17:26:33;100252.00;;;13.50
65569;BMP180;52211;50.154;8.682;2023-01-04T17:29:01;100267.00;;;13.90
65569;BMP180;52211;50.154;8.682;2023-01-04T17:31:38;100240.00;;;14.10
65569;BMP180;52211;50.154;8.682;2023-01-04T17:34:14;100235.00;;;14.30
65569;BMP180;52211;50.154;8.682;2023-01-04T17:36:51;100227.00;;;14.50
65569;BMP180;52211;50.154;8.682;2023-01-04T17:39:18;100238.00;;;14.60
65569;BMP180;52211;50.154;8.682;2023-01-04T17:41:46;100225.00;;;14.80
65569;BMP180;52211;50.154;8.682;2023-01-04T17:44:18;100227.00;;;14.80
65569;BMP180;52211;50.154;8.682;2023-01-04T17:46:45;100223.00;;;14.90
65569;BMP180;52211;50.154;8.682;2023-01-04T17:49:14;100236.00;;;15.00
65569;BMP180;52211;50.154;8.682;2023-01-04T17:51:49;100235.00;;;15.00
65569;BMP180;52211;50.154;8.682;2023-01-04T17:54:18;100227.00;;;15.00
65569;BMP180;52211;50.154;8.682;2023-01-04T17:56:49;100233.00;;;15.10
65569;BMP180;52211;50.154;8.682;2023-01-04T17:59:21;100229.00;;;15.10
65569;BMP180;52211;50.154;8.682;2023-01-04T18:01:47;100231.00;;;15.10
65569;BMP180;52211;50.154;8.682;2023-01-04T18:04:18;100230.00;;;15.20
65569;BMP180;52211;50.154;8.682;2023-01-04T18:06:47;100227.00;;;15.20
65569;BMP180;52211;50.154;8.682;2023-01-04T18:09:13;100218.00;;;15.20
65569;BMP180;52211;50.154;8.682;2023-01-04T18:11:49;100226.00;;;15.30
65569;BMP180;52211;50.154;8.682;2023-01-04T18:14:19;100221.00;;;15.30
65569;BMP180;52211;50.154;8.682;2023-01-04T18:16:50;100223.00;;;15.30
65569;BMP180;52211;50.154;8.682;2023-01-04T18:19:28;100225.00;;;15.30
65569;BMP180;52211;50.154;8.682;2023-01-04T18:21:58;100222.00;;;15.30
65569;BMP180;52211;50.154;8.682;2023-01-04T18:24:27;100224.00;;;15.30
65569;BMP180;52211;50.154;8.682;2023-01-04T18:27:07;100224.00;;;15.30
65569;BMP180;52211;50.154;8.682;2023-01-04T18:29:57;100220.00;;;15.30
65569;BMP180;52211;50.154;8.682;2023-01-04T18:32:25;100221.00;;;15.40
65569;BMP180;52211;50.154;8.682;2023-01-04T18:34:52;100225.00;;;15.40
65569;BMP180;52211;50.154;8.682;2023-01-04T18:37:19;100211.00;;;15.40
65569;BMP180;52211;50.154;8.682;2023-01-04T18:39:51;100219.00;;;15.40
65569;BMP180;52211;50.154;8.682;2023-01-04T18:42:18;100233.00;;;15.40
65569;BMP180;52211;50.154;8.682;2023-01-04T18:44:47;100232.00;;;15.40
65569;BMP180;52211;50.154;8.682;2023-01-04T18:47:19;100221.00;;;15.30
65569;BMP180;52211;50.154;8.682;2023-01-04T18:49:48;100232.00;;;15.30
65569;BMP180;52211;50.154;8.682;2023-01-04T18:52:18;100220.00;;;15.30
65569;BMP180;52211;50.154;8.682;2023-01-04T18:54:52;100229.00;;;15.30
65569;BMP180;52211;50.154;8.682;2023-01-04T18:57:27;100228.00;;;15.30
65569;BMP180;52211;50.154;8.682;2023-01-04T18:59:54;100221.00;;;15.30
65569;BMP180;52211;50.154;8.682;2023-01-04T19:02:21;100219.00;;;15.30
65569;BMP180;52211;50.154;8.682;2023-01-04T19:04:48;100219.00;;;15.30
65569;BMP180;52211;50.154;8.682;2023-01-04T19:07:15;100221.00;;;15.30
65569;BMP180;52211;50.154;8.682;2023-01-04T19:09:49;100223.00;;;15.30
65569;BMP180;52211;50.154;8.682;2023-01-04T19:12:21;100228.00;;;15.30
65569;BMP180;52211;50.154;8.682;2023-01-04T19:14:48;100225.00;;;15.20
65569;BMP180;52211;50.154;8.682;2023-01-04T19:17:17;100223.00;;;15.20
65569;BMP180;52211;50.154;8.682;2023-01-04T19:19:50;100226.00;;;15.20
65569;BMP180;52211;50.154;8.682;2023-01-04T19:22:21;100217.00;;;15.20
65569;BMP180;52211;50.154;8.682;2023-01-04T19:24:53;100227.00;;;15.20
65569;BMP180;52211;50.154;8.682;2023-01-04T19:27:25;100226.00;;;15.20
65569;BMP180;52211;50.154;8.682;2023-01-04T19:29:54;100221.00;;;15.20
65569;BMP180;52211;50.154;8.682;2023-01-04T19:32:21;100220.00;;;15.30
65569;BMP180;52211;50.154;8.682;2023-01-04T19:34:48;100217.00;;;15.30
65569;BMP180;52211;50.154;8.682;2023-01-04T19:37:15;100212.00;;;15.30
65569;BMP180;52211;50.154;8.682;2023-01-04T19:39:44;100216.00;;;15.30
65569;BMP180;52211;50.154;8.682;2023-01-04T19:42:14;100215.00;;;15.30
65569;BMP180;52211;50.154;8.682;2023-01-04T19:44:40;100213.00;;;15.30
65569;BMP180;52211;50.154;8.682;2023-01-04T19:47:07;100219.00;;;15.30
65569;BMP180;52211;50.154;8.682;2023-01-04T19:49:34;100217.00;;;15.40
65569;BMP180;52211;50.154;8.682;2023-01-04T19:52:04;100210.00;;;15.40
65569;BMP180;52211;50.154;8.682;2023-01-04T19:54:37;100228.00;;;15.40
65569;BMP180;52211;50.154;8.682;2023-01-04T19:57:08;100228.00;;;15.40
65569;BMP180;52211;50.154;8.682;2023-01-04T19:59:35;100224.00;;;15.40
65569;BMP180;52211;50.154;8.682;2023-01-04T20:02:04;100230.00;;;15.50
65569;BMP180;52211;50.154;8.682;2023-01-04T20:04:34;100233.00;;;15.50
65569;BMP180;52211;50.154;8.682;2023-01-04T20:07:01;100249.00;;;15.50
65569;BMP180;52211;50.154;8.682;2023-01-04T20:09:32;100257.00;;;15.50
65569;BMP180;52211;50.154;8.682;2023-01-04T20:12:00;100250.00;;;15.50
65569;BMP180;52211;50.154;8.682;2023-01-04T20:14:29;100261.00;;;15.40
65569;BMP180;52211;50.154;8.682;2023-01-04T20:17:01;100248.00;;;15.40
65569;BMP180;52211;50.154;8.682;2023-01-04T20:19:30;100235.00;;;15.40
65569;BMP180;52211;50.154;8.682;2023-01-04T20:22:02;100221.00;;;15.40
65569;BMP180;52211;50.154;8.682;2023-01-04T20:24:32;100229.00;;;15.40
65569;BMP180;52211;50.154;8.682;2023-01-04T20:26:59;100244.00;;;15.40
65569;BMP180;52211;50.154;8.682;2023-01-04T20:29:28;100247.00;;;15.40
65569;BMP180;52211;50.154;8.682;2023-01-04T20:31:58;100257.00;;;15.40
65569;BMP180;52211;50.154;8.682;2023-01-04T20:34:30;100267.00;;;15.40
65569;BMP180;52211;50.154;8.682;2023-01-04T20:37:02;100275.00;;;15.40
65569;BMP180;52211;50.154;8.682;2023-01-04T20:39:38;100277.00;;;15.40
65569;BMP180;52211;50.154;8.682;2023-01-04T20:42:08;100266.00;;;15.40
65569;BMP180;52211;50.154;8.682;2023-01-04T20:44:53;100267.00;;;15.40
65569;BMP180;52211;50.154;8.682;2023-01-04T20:47:20;100267.00;;;15.40
65569;BMP180;52211;50.154;8.682;2023-01-04T20:49:49;100253.00;;;15.40
65569;BMP180;52211;50.154;8.682;2023-01-04T20:52:19;100250.00;;;15.40
65569;BMP180;52211;50.154;8.682;2023-01-04T20:54:49;100259.00;;;15.40
65569;BMP180;52211;50.154;8.682;2023-01-04T20:57:20;100254.00;;;15.40
65569;BMP180;52211;50.154;8.682;2023-01-04T20:59:47;100256.00;;;15.40
65569;BMP180;52211;50.154;8.682;2023-01-04T21:02:16;100256.00;;;15.50
65569;BMP180;52211;50.154;8.682;2023-01-04T21:04:46;100244.00;;;15.50
65569;BMP180;52211;50.154;8.682;2023-01-04T21:07:15;100246.00;;;15.50
65569;BMP180;52211;50.154;8.682;2023-01-04T21:09:44;100257.00;;;15.50
65569;BMP180;52211;50.154;8.682;2023-01-04T21:12:16;100238.00;;;15.50
65569;BMP180;52211;50.154;8.682;2023-01-04T21:14:45;100248.00;;;15.50
65569;BMP180;52211;50.154;8.682;2023-01-04T21:17:14;100247.00;;;15.50
65569;BMP180;52211;50.154;8.682;2023-01-04T21:19:41;100226.00;;;15.50
65569;BMP180;52211;50.154;8.682;2023-01-04T21:22:10;100234.00;;;15.50
65569;BMP180;52211;50.154;8.682;2023-01-04T21:24:39;100227.00;;;15.60
65569;BMP180;52211;50.154;8.682;2023-01-04T21:27:08;100231.00;;;15.60
65569;BMP180;52211;50.154;8.682;2023-01-04T21:29:41;100225.00;;;15.60
65569;BMP180;52211;50.154;8.682;2023-01-04T21:32:08;100234.00;;;15.60
65569;BMP180;52211;50.154;8.682;2023-01-04T21:34:37;100224.00;;;15.60
65569;BMP180;52211;50.154;8.682;2023-01-04T21:37:04;100220.00;;;15.70
65569;BMP180;52211;50.154;8.682;2023-01-04T21:39:34;100226.00;;;15.70
65569;BMP180;52211;50.154;8.682;2023-01-04T21:42:01;100222.00;;;15.70
65569;BMP180;52211;50.154;8.682;2023-01-04T21:44:30;100213.00;;;15.70
65569;BMP180;52211;50.154;8.682;2023-01-04T21:46:58;100215.00;;;15.80
65569;BMP180;52211;50.154;8.682;2023-01-04T21:49:30;100222.00;;;15.80
65569;BMP180;52211;50.154;8.682;2023-01-04T21:51:57;100213.00;;;15.80
65569;BMP180;52211;50.154;8.682;2023-01-04T21:54:24;100212.00;;;15.80
65569;BMP180;52211;50.154;8.682;2023-01-04T21:56:51;100203.00;;;15.80
65569;BMP180;52211;50.154;8.682;2023-01-04T21:59:18;100212.00;;;15.80
65569;BMP180;52211;50.154;8.682;2023-01-04T22:01:48;100209.00;;;15.80
65569;BMP180;52211;50.154;8.682;2023-01-04T22:04:15;100209.00;;;15.90
65569;BMP180;52211;50.154;8.682;2023-01-04T22:06:42;100211.00;;;15.90
65569;BMP180;52211;50.154;8.682;2023-01-04T22:09:14;100209.00;;;15.90
65569;BMP180;52211;50.154;8.682;2023-01-04T22:11:41;100209.00;;;15.90
65569;BMP180;52211;50.154;8.682;2023-01-04T22:14:09;100197.00;;;15.90
65569;BMP180;52211;50.154;8.682;2023-01-04T22:16:38;100203.00;;;15.90
65569;BMP180;52211;50.154;8.682;2023-01-04T22:19:19;100199.00;;;15.90
65569;BMP180;52211;50.154;8.682;2023-01-04T22:21:48;100191.00;;;16.00
65569;BMP180;52211;50.154;8.682;2023-01-04T22:24:15;100186.00;;;16.00
65569;BMP180;52211;50.154;8.682;2023-01-04T22:26:45;100186.00;;;15.90
65569;BMP180;52211;50.154;8.682;2023-01-04T22:29:19;100199.00;;;16.00
65569;BMP180;52211;50.154;8.682;2023-01-04T22:31:53;100194.00;;;15.90
65569;BMP180;52211;50.154;8.682;2023-01-04T22:34:22;100201.00;;;15.90
65569;BMP180;52211;50.154;8.682;2023-01-04T22:36:50;100197.00;;;15.90
65569;BMP180;52211;50.154;8.682;2023-01-04T22:39:17;100212.00;;;15.90
65569;BMP180;52211;50.154;8.682;2023-01-04T22:41:49;100206.00;;;15.90
65569;BMP180;52211;50.154;8.682;2023-01-04T22:44:20;100201.00;;;15.90
65569;BMP180;52211;50.154;8.682;2023-01-04T22:46:49;100212.00;;;15.90
65569;BMP180;52211;50.154;8.682;2023-01-04T22:49:19;100199.00;;;15.90
65569;BMP180;52211;50.154;8.682;2023-01-04T22:51:45;100193.00;;;15.90
65569;BMP180;52211;50.154;8.682;2023-01-04T22:54:12;100191.00;;;15.90
65569;BMP180;52211;50.154;8.682;2023-01-04T22:56:39;100196.00;;;16.00
65569;BMP180;52211;50.154;8.682;2023-01-04T22:59:09;100198.00;;;16.00
65569;BMP180;52211;50.154;8.682;2023-01-04T23:01:41;100177.00;;;16.00
65569;BMP180;52211;50.154;8.682;2023-01-04T23:04:08;100174.00;;;16.00
65569;BMP180;52211;50.154;8.682;2023-01-04T23:06:36;100170.00;;;16.00
65569;BMP180;52211;50.154;8.682;2023-01-04T23:09:06;100162.00;;;16.00
65569;BMP180;52211;50.154;8.682;2023-01-04T23:11:38;100168.00;;;16.00
65569;BMP180;52211;50.154;8.682;2023-01-04T23:14:18;100169.00;;;16.00
65569;BMP180;52211;50.154;8.682;2023-01-04T23:16:47;100185.00;;;16.10
65569;BMP180;52211;50.154;8.682;2023-01-04T23:19:15;100184.00;;;16.10
65569;BMP180;52211;50.154;8.682;2023-01-04T23:21:44;100176.00;;;16.10
65569;BMP180;52211;50.154;8.682;2023-01-04T23:24:18;100188.00;;;16.10
65569;BMP180;52211;50.154;8.682;2023-01-04T23:26:49;100172.00;;;16.10
65569;BMP180;52211;50.154;8.682;2023-01-04T23:29:16;100171.00;;;16.10
65569;BMP180;52211;50.154;8.682;2023-01-04T23:31:45;100186.00;;;16.10
65569;BMP180;52211;50.154;8.682;2023-01-04T23:34:12;100178.00;;;16.20
65569;BMP180;52211;50.154;8.682;2023-01-04T23:36:43;100178.00;;;16.20
65569;BMP180;52211;50.154;8.682;2023-01-04T23:39:16;100184.00;;;16.20
65569;BMP180;52211;50.154;8.682;2023-01-04T23:41:50;100178.00;;;16.20
65569;BMP180;52211;50.154;8.682;2023-01-04T23:44:28;100164.00;;;16.20
65569;BMP180;52211;50.154;8.682;2023-01-04T23:47:05;100170.00;;;16.20
65569;BMP180;52211;50.154;8.682;2023-01-04T23:49:36;100170.00;;;16.20
65569;BMP180;52211;50.154;8.682;2023-01-04T23:52:06;100162.00;;;16.20
65569;BMP180;52211;50.154;8.682;2023-01-04T23:54:38;100166.00;;;16.20
65569;BMP180;52211;50.154;8.682;2023-01-04T23:57:11;100170.00;;;16.20
65569;BMP180;52211;50.154;8.682;2023-01-04T23:59:42;100175.00;;;16.20
